Time;durP1;ratioP1;P1;durP2;ratioP2;P2;SDS_P1;SDS_P2;PMS_P1;PMS_P2;Temp;Humidity;BMP_temperature;BMP_pressure;BME280_temperature;BME280_humidity;BME280_pressure;Samples;Min_cycle;Max_cycle;Signal;HPM_P1;HPM_P2
2021/03/03 05:53:31;;;;;;;21.30;10.03;;;;;;;0.43;97.30;99944.91;1687492;84;21197;-56
2021/03/03 05:56:06;;;;;;;17.40;8.97;;;;;;;0.46;96.41;99939.94;1654205;86;21299;-56
2021/03/03 05:58:37;;;;;;;17.93;8.50;;;;;;;0.49;95.79;99948.80;1636817;86;21693;-55
2021/03/03 06:01:08;;;;;;;13.85;7.72;;;;;;;0.51;95.95;99930.86;1668631;84;21172;-57
2021/03/03 06:03:39;;;;;;;16.48;7.67;;;;;;;0.51;94.17;99950.80;1669641;84;21222;-57
2021/03/03 06:06:08;;;;;;;19.65;8.70;;;;;;;0.49;94.52;99935.36;1623946;86;21326;-58
2021/03/03 06:08:38;;;;;;;20.82;8.60;;;;;;;0.52;95.02;99940.80;1618087;87;21152;-58
2021/03/03 06:11:09;;;;;;;15.50;8.00;;;;;;;0.55;94.58;99942.32;1635207;86;21175;-57
2021/03/03 06:13:43;;;;;;;16.97;8.10;;;;;;;0.60;93.71;99938.91;1616731;87;21558;-58
2021/03/03 06:16:13;;;;;;;16.63;7.73;;;;;;;0.60;93.85;99945.39;1672654;84;21376;-59
2021/03/03 06:18:42;;;;;;;18.70;9.20;;;;;;;0.63;94.06;99947.73;1675470;84;21607;-53
2021/03/03 06:21:28;;;;;;;16.87;8.17;;;;;;;0.69;94.16;99955.91;1675967;84;21161;-56
2021/03/03 06:24:08;;;;;;;19.17;9.10;;;;;;;0.77;93.42;99956.60;1671084;84;21199;-47
2021/03/03 06:26:58;;;;;;;17.67;8.43;;;;;;;0.81;92.84;99943.75;1664247;84;21198;-60
2021/03/03 06:29:28;;;;;;;17.32;7.53;;;;;;;0.90;92.04;99953.41;1653821;86;21305;-57
2021/03/03 06:32:01;;;;;;;16.20;6.73;;;;;;;0.97;90.61;99938.17;1634543;87;21251;-58
2021/03/03 06:34:33;;;;;;;17.43;8.00;;;;;;;0.91;88.41;99948.55;1638910;86;21178;-57
2021/03/03 06:37:04;;;;;;;14.23;7.70;;;;;;;0.83;89.85;99968.28;1649358;86;21222;-59
2021/03/03 06:39:37;;;;;;;16.17;7.63;;;;;;;0.81;91.06;99948.94;1657456;84;21217;-59
2021/03/03 06:42:08;;;;;;;22.30;10.97;;;;;;;0.85;91.27;99949.03;1669090;84;21136;-56
2021/03/03 06:44:51;;;;;;;16.02;7.53;;;;;;;0.89;91.34;99949.63;1668255;86;21967;-57
2021/03/03 06:47:22;;;;;;;18.87;7.90;;;;;;;0.94;91.02;99956.59;1667759;86;21227;-56
2021/03/03 06:49:52;;;;;;;16.82;7.17;;;;;;;0.95;91.02;99953.88;1641966;86;21587;-49
2021/03/03 06:52:39;;;;;;;17.57;7.80;;;;;;;1.03;90.46;99954.56;1689016;84;21692;-65
2021/03/03 06:55:09;;;;;;;15.73;7.30;;;;;;;1.03;90.46;99954.56;1695161;84;21182;-58
2021/03/03 06:57:38;;;;;;;14.07;7.17;;;;;;;1.03;90.67;99954.13;1685597;84;21215;-59
2021/03/03 07:00:11;;;;;;;16.90;8.03;;;;;;;1.08;90.06;99958.10;1685248;84;21174;-54
2021/03/03 07:02:43;;;;;;;15.97;7.30;;;;;;;1.12;89.79;99955.16;1694912;84;21194;-46
2021/03/03 07:05:13;;;;;;;15.72;7.55;;;;;;;1.16;88.93;99961.77;1694965;84;21178;-51
2021/03/03 07:07:42;;;;;;;14.03;6.78;;;;;;;1.16;88.41;99953.98;1693609;85;21187;-59
2021/03/03 07:10:12;;;;;;;14.63;6.87;;;;;;;1.20;88.70;99941.08;1693940;84;21315;-49
2021/03/03 07:12:50;;;;;;;16.33;7.40;;;;;;;1.22;87.29;99947.47;1693660;84;21226;-61
2021/03/03 07:15:19;;;;;;;15.53;6.97;;;;;;;1.15;87.74;99959.27;1688343;84;21188;-59
2021/03/03 07:17:48;;;;;;;13.60;7.00;;;;;;;1.10;87.19;99954.94;1670210;85;21206;-58
2021/03/03 07:20:17;;;;;;;17.47;7.00;;;;;;;1.12;88.16;99945.24;1680582;84;21213;-56
2021/03/03 07:22:51;;;;;;;13.40;6.37;;;;;;;1.16;86.59;99944.88;1662980;86;21190;-48
2021/03/03 07:25:21;;;;;;;14.37;6.77;;;;;;;1.18;86.56;99943.45;1673868;84;21246;-53
2021/03/03 07:27:52;;;;;;;16.67;7.35;;;;;;;1.22;85.50;99943.10;1695366;84;21665;-55
2021/03/03 07:30:27;;;;;;;16.43;7.53;;;;;;;1.31;85.64;99944.95;1685719;84;21413;-55
2021/03/03 07:32:56;;;;;;;14.33;7.17;;;;;;;1.42;85.88;99950.59;1666822;86;21217;-54
2021/03/03 07:35:28;;;;;;;14.25;7.72;;;;;;;1.51;85.71;99940.78;1690979;84;21767;-55
2021/03/03 07:37:58;;;;;;;15.77;7.00;;;;;;;1.65;84.75;99952.65;1691289;85;21550;-58
2021/03/03 07:40:30;;;;;;;14.20;6.80;;;;;;;1.74;84.88;99947.20;1691456;85;21229;-56
2021/03/03 07:43:01;;;;;;;15.57;7.53;;;;;;;1.95;84.01;99938.95;1670807;85;21183;-57
2021/03/03 07:45:40;;;;;;;17.07;7.73;;;;;;;2.20;83.51;99942.94;1691788;85;21150;-57
2021/03/03 07:48:12;;;;;;;16.33;8.00;;;;;;;2.37;81.09;99948.86;1691350;85;21214;-60
2021/03/03 07:50:42;;;;;;;20.95;7.85;;;;;;;2.43;80.76;99953.20;1691468;85;21207;-52
2021/03/03 07:53:13;;;;;;;18.85;8.15;;;;;;;2.52;79.73;99951.93;1686857;84;21229;-57
2021/03/03 07:55:43;;;;;;;14.43;7.25;;;;;;;2.62;79.63;99956.72;1688260;85;21340;-58
2021/03/03 07:58:12;;;;;;;14.17;7.13;;;;;;;2.73;78.43;99958.41;1697183;84;21202;-54
2021/03/03 08:00:43;;;;;;;14.03;7.13;;;;;;;2.73;77.37;99961.50;1647359;86;21239;-61
2021/03/03 08:03:13;;;;;;;16.62;7.40;;;;;;;2.67;77.69;99958.94;1675194;85;21316;-53
2021/03/03 08:05:44;;;;;;;;;;;;;;;2.73;77.23;99952.38;1690505;85;21255;-59
2021/03/03 08:08:30;;;;;;;18.92;7.50;;;;;;;2.79;75.54;99958.38;1687776;85;20193;-62
2021/03/03 08:11:05;;;;;;;16.60;7.67;;;;;;;2.66;75.50;99954.20;1689619;85;21479;-63
2021/03/03 08:13:39;;;;;;;14.87;7.62;;;;;;;2.62;76.39;99954.59;1691191;83;21181;-61
2021/03/03 08:16:08;;;;;;;18.25;7.65;;;;;;;2.72;77.45;99961.16;1695538;84;21215;-59
2021/03/03 08:18:54;;;;;;;17.35;6.92;;;;;;;2.89;76.43;99943.61;1698700;84;21316;-53
2021/03/03 08:21:27;;;;;;;22.33;9.60;;;;;;;3.07;75.27;99933.38;1689667;85;21166;-51
2021/03/03 08:23:58;;;;;;;22.50;9.83;;;;;;;3.08;73.75;99929.81;1689496;84;21170;-55
2021/03/03 08:26:36;;;;;;;15.88;7.80;;;;;;;3.01;73.63;99956.88;1691222;84;21335;-48
2021/03/03 08:29:16;;;;;;;17.12;8.25;;;;;;;2.90;74.31;99943.95;1691535;85;21186;-53
2021/03/03 08:31:45;;;;;;;16.62;6.90;;;;;;;2.84;74.83;99963.53;1691849;85;21340;-48
2021/03/03 08:34:15;;;;;;;16.45;7.53;;;;;;;2.72;74.36;99960.67;1683067;84;21333;-56
2021/03/03 08:36:49;;;;;;;16.75;7.58;;;;;;;2.58;74.78;99948.84;1663131;84;21619;-53
2021/03/03 08:39:24;;;;;;;15.27;6.87;;;;;;;2.48;75.23;99939.33;1650325;86;21381;-56
2021/03/03 08:41:55;;;;;;;15.28;7.72;;;;;;;2.48;76.14;99945.84;1671628;85;21202;-59
2021/03/03 08:44:24;;;;;;;26.60;9.77;;;;;;;2.53;76.82;99941.89;1666967;85;21781;-51
2021/03/03 08:46:53;;;;;;;17.05;7.58;;;;;;;2.72;77.48;99940.33;1671148;85;21641;-55
2021/03/03 08:49:27;;;;;;;15.40;6.70;;;;;;;2.99;75.84;99937.96;1682877;84;21357;-51
2021/03/03 08:52:10;;;;;;;13.88;6.85;;;;;;;3.10;74.10;99933.95;1681187;84;21300;-53
2021/03/03 08:54:43;;;;;;;17.85;7.20;;;;;;;3.04;74.91;99930.58;1675656;85;21748;-53
2021/03/03 08:57:32;;;;;;;18.17;8.30;;;;;;;3.13;74.76;99934.15;1678544;85;21332;-51
2021/03/03 09:00:04;;;;;;;16.57;7.25;;;;;;;3.17;74.87;99929.02;1677737;85;21195;-47
2021/03/03 09:02:36;;;;;;;;;;;;;;;3.27;73.63;99925.97;1681138;85;21211;-60
2021/03/03 09:05:11;;;;;;;16.50;7.63;;;;;;;3.34;73.51;99927.06;1659731;85;20152;-60
2021/03/03 09:07:41;;;;;;;14.70;8.10;;;;;;;3.44;72.92;99920.54;1678940;85;21198;-51
2021/03/03 09:10:18;;;;;;;18.40;8.60;;;;;;;3.57;73.02;99934.16;1679026;85;21218;-53
2021/03/03 09:12:47;;;;;;;18.48;9.70;;;;;;;3.71;71.59;99942.86;1679027;85;21175;-56
2021/03/03 09:15:17;;;;;;;19.25;9.20;;;;;;;3.66;70.47;99943.74;1686036;85;21389;-50
2021/03/03 09:17:48;;;;;;;18.67;9.73;;;;;;;3.52;71.89;99950.68;1690287;84;21316;-53
2021/03/03 09:20:18;;;;;;;18.55;8.45;;;;;;;3.54;71.85;99946.14;1689884;84;21214;-54
2021/03/03 09:22:47;;;;;;;17.02;7.83;;;;;;;3.69;72.28;99942.66;1689901;84;21135;-54
2021/03/03 09:25:21;;;;;;;16.37;7.75;;;;;;;4.01;72.30;99952.80;1690004;85;21606;-50
2021/03/03 09:27:57;;;;;;;17.00;9.15;;;;;;;4.38;71.00;99945.54;1690892;84;21151;-57
2021/03/03 09:30:30;;;;;;;19.98;8.48;;;;;;;4.65;69.97;99945.60;1691748;84;21292;-52
2021/03/03 09:33:03;;;;;;;16.52;7.87;;;;;;;4.86;69.67;99954.51;1691112;84;21179;-51
2021/03/03 09:35:36;;;;;;;15.58;8.13;;;;;;;5.12;68.68;99944.22;1656245;86;21369;-52
2021/03/03 09:38:08;;;;;;;14.13;6.90;;;;;;;5.15;66.48;99944.39;1678382;85;21243;-48
2021/03/03 09:40:38;;;;;;;17.07;7.75;;;;;;;4.94;66.23;99959.85;1638486;85;21911;-55
2021/03/03 09:43:07;;;;;;;17.75;7.90;;;;;;;4.56;65.57;99963.91;1678959;85;21167;-53
2021/03/03 09:45:37;;;;;;;15.90;8.10;;;;;;;4.23;67.45;99952.98;1659356;85;21650;-52
2021/03/03 09:48:08;;;;;;;18.37;8.03;;;;;;;4.23;67.79;99951.19;1679360;85;21155;-59
2021/03/03 09:50:38;;;;;;;;;;;;;;;4.16;68.17;99944.89;1680843;84;21368;-57
2021/03/03 09:53:09;;;;;;;17.70;7.70;;;;;;;4.20;69.21;99942.84;1678458;85;20277;-53
2021/03/03 09:55:39;;;;;;;18.12;8.20;;;;;;;4.30;69.34;99941.48;1676666;85;21582;-51
2021/03/03 09:58:09;;;;;;;17.15;7.58;;;;;;;4.35;69.12;99945.33;1677537;85;21190;-52
2021/03/03 10:00:42;;;;;;;18.42;8.58;;;;;;;4.40;69.09;99944.91;1676564;85;21135;-57
2021/03/03 10:03:13;;;;;;;20.10;8.80;;;;;;;4.43;69.06;99945.95;1676633;85;21190;-57
2021/03/03 10:05:43;;;;;;;15.27;7.70;;;;;;;4.48;68.94;99943.25;1675820;85;21336;-56
2021/03/03 10:08:13;;;;;;;18.75;8.58;;;;;;;4.50;68.10;99953.55;1676440;85;21210;-60
2021/03/03 10:10:47;;;;;;;18.80;8.93;;;;;;;4.47;68.54;99949.89;1676802;85;21682;-57
2021/03/03 10:13:20;;;;;;;20.27;8.93;;;;;;;4.64;68.62;99954.38;1676152;85;21179;-62
2021/03/03 10:15:49;;;;;;;;;;;;;;;4.84;68.39;99945.19;1659020;85;21369;-56
2021/03/03 10:18:21;;;;;;;18.75;8.45;;;;;;;4.98;68.02;99932.44;1675679;85;20194;-58
2021/03/03 10:20:56;;;;;;;18.62;8.58;;;;;;;5.15;67.79;99924.30;1676476;84;21233;-54
2021/03/03 10:23:30;;;;;;;17.10;8.38;;;;;;;5.31;66.91;99927.59;1676737;85;21194;-57
2021/03/03 10:26:07;;;;;;;15.25;7.87;;;;;;;5.39;66.62;99913.30;1676623;85;21183;-56
2021/03/03 10:28:37;;;;;;;20.12;8.40;;;;;;;5.56;66.36;99915.56;1661068;86;21175;-54
2021/03/03 10:31:23;;;;;;;17.70;8.33;;;;;;;5.69;65.91;99912.59;1673446;85;21190;-52
2021/03/03 10:33:51;;;;;;;17.20;8.30;;;;;;;5.75;65.48;99914.60;1673045;85;21183;-52
2021/03/03 10:36:22;;;;;;;16.70;7.58;;;;;;;5.75;64.73;99912.81;1673412;86;22316;-52
2021/03/03 10:38:54;;;;;;;20.60;9.08;;;;;;;5.66;63.76;99912.88;1674003;86;21616;-52
2021/03/03 10:41:33;;;;;;;18.35;8.65;;;;;;;5.45;64.47;99913.16;1673433;86;21188;-53
2021/03/03 10:44:05;;;;;;;17.90;8.73;;;;;;;5.36;65.82;99904.44;1673824;86;21204;-55
2021/03/03 10:46:45;;;;;;;19.12;9.15;;;;;;;5.23;64.26;99918.36;1673705;85;21627;-58
2021/03/03 10:49:18;;;;;;;20.35;10.13;;;;;;;5.01;65.79;99913.05;1673868;85;21303;-58
2021/03/03 10:51:48;;;;;;;18.50;9.30;;;;;;;4.98;66.84;99914.64;1677550;85;21167;-53
2021/03/03 10:54:33;;;;;;;23.50;10.13;;;;;;;5.02;67.45;99911.59;1657514;85;21333;-53
2021/03/03 10:57:08;;;;;;;19.77;9.38;;;;;;;5.14;67.54;99904.37;1692933;84;21194;-56
2021/03/03 10:59:38;;;;;;;18.35;9.40;;;;;;;5.20;66.80;99898.55;1691034;84;21177;-55
2021/03/03 11:02:11;;;;;;;18.23;9.10;;;;;;;5.20;66.62;99896.42;1676064;85;21356;-57
2021/03/03 11:04:47;;;;;;;20.05;8.93;;;;;;;5.19;66.93;99885.15;1657274;85;21207;-57
2021/03/03 11:07:17;;;;;;;17.98;8.78;;;;;;;5.17;66.87;99883.66;1676047;85;21627;-59
2021/03/03 11:09:51;;;;;;;18.27;9.25;;;;;;;5.16;67.52;99872.84;1676553;85;21598;-57
2021/03/03 11:12:23;;;;;;;19.77;9.05;;;;;;;5.21;68.03;99874.53;1676367;85;21206;-57
2021/03/03 11:14:54;;;;;;;17.30;8.78;;;;;;;5.27;67.55;99875.25;1677103;84;21174;-56
2021/03/03 11:17:23;;;;;;;20.60;10.38;;;;;;;5.36;67.03;99868.31;1689358;84;21166;-58
2021/03/03 11:19:52;;;;;;;21.05;10.80;;;;;;;5.40;67.18;99867.88;1675825;85;21143;-55
2021/03/03 11:22:22;;;;;;;21.02;10.13;;;;;;;5.48;66.87;99861.89;1689620;83;21190;-57
2021/03/03 11:24:52;;;;;;;;;;;;;;;5.54;66.36;99862.10;1702279;84;21202;-57
2021/03/03 11:27:21;;;;;;;22.02;10.80;;;;;;;5.54;65.81;99867.33;1691520;85;20210;-55
2021/03/03 11:29:53;;;;;;;23.20;11.30;;;;;;;5.57;66.03;99861.00;1691919;85;21301;-56
2021/03/03 11:32:22;;;;;;;24.27;11.83;;;;;;;5.57;66.16;99857.89;1691521;85;21210;-54
2021/03/03 11:34:51;;;;;;;23.90;12.50;;;;;;;5.62;66.20;99854.83;1693779;84;21190;-58
2021/03/03 11:37:22;;;;;;;24.75;13.03;;;;;;;5.66;66.56;99854.02;1692189;84;21186;-53
2021/03/03 11:39:53;;;;;;;24.50;13.18;;;;;;;5.68;66.33;99845.52;1696751;84;21206;-61
2021/03/03 11:42:22;;;;;;;;;;;;;;;5.73;66.62;99843.27;1699092;84;21174;-52
2021/03/03 11:44:53;;;;;;;26.40;14.05;;;;;;;5.79;66.53;99844.82;1696573;84;20196;-58
2021/03/03 11:47:22;;;;;;;24.70;12.90;;;;;;;5.83;66.37;99836.16;1699603;84;22299;-56
2021/03/03 11:49:52;;;;;;;24.70;12.18;;;;;;;5.89;66.49;99834.73;1683447;84;21716;-56
2021/03/03 11:52:22;;;;;;;23.52;12.82;;;;;;;5.92;66.12;99832.66;1676402;85;21259;-58
2021/03/03 11:54:51;;;;;;;22.67;11.97;;;;;;;5.91;66.37;99831.03;1672070;85;21206;-55
2021/03/03 11:57:20;;;;;;;24.05;12.20;;;;;;;5.98;66.51;99829.43;1694192;84;21233;-60
2021/03/03 11:59:51;;;;;;;23.00;12.00;;;;;;;6.04;65.89;99831.42;1693603;84;21230;-58
2021/03/03 12:02:24;;;;;;;22.20;11.85;;;;;;;6.01;65.85;99824.36;1689595;84;21171;-57
2021/03/03 12:04:54;;;;;;;24.40;11.55;;;;;;;6.02;65.72;99822.92;1682274;84;21177;-62
2021/03/03 12:07:25;;;;;;;22.50;10.98;;;;;;;6.07;65.59;99825.87;1699607;84;21347;-57
2021/03/03 12:09:55;;;;;;;20.48;10.58;;;;;;;6.12;65.43;99824.92;1694261;84;21190;-56
2021/03/03 12:12:24;;;;;;;22.77;11.22;;;;;;;6.12;65.38;99819.68;1693538;85;21190;-54
2021/03/03 12:14:54;;;;;;;22.02;10.88;;;;;;;6.15;65.29;99817.75;1692220;84;21196;-53
2021/03/03 12:17:23;;;;;;;25.17;10.90;;;;;;;6.22;65.11;99813.52;1693523;85;21177;-49
2021/03/03 12:19:52;;;;;;;19.20;9.80;;;;;;;6.31;65.06;99810.80;1693820;84;21209;-57
2021/03/03 12:22:21;;;;;;;20.40;9.65;;;;;;;6.39;64.72;99804.77;1693767;85;21209;-54
2021/03/03 12:24:51;;;;;;;18.45;9.60;;;;;;;6.41;64.44;99807.22;1693769;85;21374;-53
2021/03/03 12:27:20;;;;;;;17.67;8.80;;;;;;;6.43;64.11;99802.66;1693431;85;21209;-56
2021/03/03 12:29:49;;;;;;;20.08;8.78;;;;;;;6.43;63.97;99803.48;1688776;84;21601;-53
2021/03/03 12:32:20;;;;;;;21.65;9.03;;;;;;;6.44;64.13;99786.78;1655424;84;21180;-59
2021/03/03 12:34:50;;;;;;;21.17;9.28;;;;;;;6.46;63.78;99786.61;1692843;84;21190;-53
2021/03/03 12:37:19;;;;;;;19.50;8.80;;;;;;;6.42;63.25;99783.97;1691643;84;21547;-51
2021/03/03 12:39:48;;;;;;;20.23;9.15;;;;;;;6.35;63.49;99785.91;1692077;84;21317;-54
2021/03/03 12:42:17;;;;;;;18.50;9.30;;;;;;;6.27;63.67;99780.66;1691807;84;21316;-50
2021/03/03 12:44:47;;;;;;;33.05;9.88;;;;;;;6.18;64.54;99794.67;1692003;85;21182;-54
2021/03/03 12:47:17;;;;;;;17.90;9.65;;;;;;;6.12;64.59;99794.81;1691382;84;21772;-55
2021/03/03 12:49:48;;;;;;;18.95;8.80;;;;;;;6.08;65.01;99790.06;1691731;84;21166;-50
2021/03/03 12:52:17;;;;;;;19.42;8.93;;;;;;;6.04;65.22;99796.09;1691582;85;21319;-60
2021/03/03 12:54:49;;;;;;;17.42;8.55;;;;;;;6.02;65.66;99787.59;1693212;84;21158;-55
2021/03/03 12:57:18;;;;;;;16.17;8.68;;;;;;;6.05;65.97;99785.13;1697863;84;21728;-61
2021/03/03 12:59:51;;;;;;;16.52;8.08;;;;;;;6.06;65.80;99781.04;1654442;84;21336;-50
2021/03/03 13:02:21;;;;;;;18.07;8.65;;;;;;;6.06;65.66;99777.60;1649134;85;21139;-53
2021/03/03 13:04:52;;;;;;;19.07;7.90;;;;;;;6.05;65.17;99776.78;1663683;86;21171;-53
2021/03/03 13:07:21;;;;;;;22.60;9.03;;;;;;;6.03;65.10;99765.66;1663538;86;21191;-60
2021/03/03 13:09:51;;;;;;;19.30;9.73;;;;;;;6.02;65.40;99769.72;1663745;86;21689;-49
2021/03/03 13:12:20;;;;;;;16.82;8.35;;;;;;;6.06;65.66;99764.02;1662594;86;21683;-55
2021/03/03 13:14:50;;;;;;;22.65;10.60;;;;;;;6.08;65.32;99762.58;1663632;85;21309;-58
2021/03/03 13:17:19;;;;;;;18.05;8.55;;;;;;;6.07;65.20;99754.38;1663199;86;21218;-52
2021/03/03 13:19:49;;;;;;;18.52;8.98;;;;;;;6.08;65.19;99752.11;1638063;85;21225;-55
2021/03/03 13:22:18;;;;;;;28.25;9.58;;;;;;;6.06;65.15;99753.55;1635502;87;21201;-58
2021/03/03 13:24:49;;;;;;;29.12;11.45;;;;;;;6.03;65.33;99749.95;1636137;86;21230;-56
2021/03/03 13:27:20;;;;;;;26.52;12.82;;;;;;;6.00;65.57;99746.33;1696608;84;21226;-62
2021/03/03 13:29:49;;;;;;;25.30;10.95;;;;;;;5.98;65.72;99746.98;1694444;84;21143;-54
2021/03/03 13:32:20;;;;;;;21.68;9.98;;;;;;;5.99;65.76;99745.19;1635542;86;21229;-56
2021/03/03 13:34:49;;;;;;;18.98;8.93;;;;;;;5.96;65.68;99744.99;1636341;86;21618;-58
2021/03/03 13:37:18;;;;;;;19.57;9.38;;;;;;;5.91;65.61;99739.86;1664981;86;21192;-51
2021/03/03 13:39:52;;;;;;;18.45;9.40;;;;;;;5.86;65.71;99736.43;1663256;86;21188;-49
2021/03/03 13:42:22;;;;;;;19.95;9.73;;;;;;;5.82;65.89;99736.40;1672049;85;21226;-51
2021/03/03 13:44:54;;;;;;;16.80;9.05;;;;;;;5.80;66.26;99731.82;1691335;85;21146;-48
2021/03/03 13:47:25;;;;;;;16.62;9.15;;;;;;;5.80;66.46;99722.66;1681868;85;21344;-51
2021/03/03 13:49:55;;;;;;;19.07;10.15;;;;;;;5.76;66.82;99722.14;1691991;85;21186;-53
2021/03/03 13:52:24;;;;;;;23.18;11.15;;;;;;;5.75;67.10;99716.58;1691690;85;21260;-58
2021/03/03 13:54:53;;;;;;;21.10;10.45;;;;;;;5.71;66.94;99717.05;1676475;85;21211;-57
2021/03/03 13:57:23;;;;;;;21.50;10.48;;;;;;;5.64;67.11;99722.08;1664757;85;21202;-59
2021/03/03 13:59:54;;;;;;;19.15;9.33;;;;;;;5.55;67.80;99712.05;1658330;86;21219;-49
2021/03/03 14:02:28;;;;;;;20.85;9.55;;;;;;;5.44;68.63;99704.94;1646189;87;21176;-57
2021/03/03 14:04:56;;;;;;;;;;;;;;;5.31;68.88;99707.97;1661348;86;21199;-58
2021/03/03 14:07:30;;;;;;;23.90;11.40;;;;;;;5.23;69.18;99712.66;1660771;85;20200;-57
2021/03/03 14:09:59;;;;;;;25.08;13.15;;;;;;;5.18;69.42;99711.48;1661122;85;21203;-56
2021/03/03 14:12:29;;;;;;;26.02;13.10;;;;;;;5.14;69.74;99710.13;1658382;86;21214;-55
2021/03/03 14:14:58;;;;;;;25.30;12.65;;;;;;;5.10;69.98;99703.06;1660339;85;21194;-58
2021/03/03 14:17:28;;;;;;;22.48;11.68;;;;;;;5.07;70.30;99694.24;1675240;85;21226;-56
2021/03/03 14:20:02;;;;;;;23.73;12.37;;;;;;;5.03;70.36;99696.81;1674776;85;21179;-59
2021/03/03 14:22:31;;;;;;;22.05;12.53;;;;;;;4.98;70.40;99689.91;1676813;85;21706;-57
2021/03/03 14:25:01;;;;;;;25.17;12.90;;;;;;;4.91;70.73;99687.58;1676494;85;21628;-51
2021/03/03 14:27:30;;;;;;;26.93;11.88;;;;;;;4.79;71.15;99687.81;1675862;85;21214;-50
2021/03/03 14:30:04;;;;;;;24.37;12.47;;;;;;;4.69;71.28;99684.94;1676372;85;21359;-52
2021/03/03 14:32:35;;;;;;;25.97;13.88;;;;;;;4.56;71.56;99686.62;1662984;85;21621;-52
2021/03/03 14:35:07;;;;;;;27.67;13.90;;;;;;;4.46;71.91;99687.16;1621688;85;21358;-55
2021/03/03 14:37:37;;;;;;;30.65;15.98;;;;;;;4.41;72.71;99683.69;1653858;85;21741;-57
2021/03/03 14:40:08;;;;;;;26.23;14.23;;;;;;;4.31;73.62;99683.44;1662984;86;21182;-54
2021/03/03 14:42:38;;;;;;;29.32;13.83;;;;;;;4.20;74.09;99681.36;1664856;85;21250;-55
2021/03/03 14:45:13;;;;;;;26.05;14.05;;;;;;;4.17;74.12;99680.83;1676568;85;21163;-55
2021/03/03 14:47:42;;;;;;;26.27;14.03;;;;;;;4.12;74.48;99680.44;1676854;85;21182;-50
2021/03/03 14:50:14;;;;;;;29.72;15.58;;;;;;;4.10;75.01;99671.46;1675346;85;21300;-59
2021/03/03 14:52:43;;;;;;;25.62;13.78;;;;;;;4.04;75.38;99674.66;1668725;85;21234;-61
